Time;durP1;ratioP1;P1;durP2;ratioP2;P2;SDS_P1;SDS_P2;PMS_P1;PMS_P2;Temp;Humidity;BMP_temperature;BMP_pressure;BME280_temperature;BME280_humidity;BME280_pressure;Samples;Min_cycle;Max_cycle;Signal;HPM_P1;HPM_P2
2023/11/16 00:00:23;;;;;;;4.63;1.40;;;;;;;7.78;100.00;100611.28;5046912;28;20045;-75
2023/11/16 00:02:54;;;;;;;7.65;1.67;;;;;;;7.78;100.00;100603.38;5043538;28;20058;-74
2023/11/16 00:05:23;;;;;;;5.72;1.85;;;;;;;7.73;100.00;100606.16;5037971;28;20049;-76
2023/11/16 00:07:53;;;;;;;8.98;1.70;;;;;;;7.69;100.00;100601.03;5048504;28;20053;-76
2023/11/16 00:10:24;;;;;;;4.32;1.42;;;;;;;7.65;100.00;100605.53;5048436;28;20049;-75
2023/11/16 00:12:54;;;;;;;7.70;1.50;;;;;;;7.57;100.00;100604.03;5044369;28;20223;-75
2023/11/16 00:15:22;;;;;;;4.80;1.70;;;;;;;7.59;100.00;100608.34;5052531;28;20056;-76
2023/11/16 00:17:51;;;;;;;7.13;1.23;;;;;;;7.56;100.00;100610.22;5039541;28;20043;-76
2023/11/16 00:20:20;;;;;;;4.87;1.43;;;;;;;7.53;100.00;100611.22;5058553;28;20075;-75
2023/11/16 00:22:50;;;;;;;6.40;1.38;;;;;;;7.49;100.00;100604.28;5056530;28;20067;-75
2023/11/16 00:25:19;;;;;;;4.10;1.50;;;;;;;7.46;100.00;100606.16;5050618;28;20677;-75
2023/11/16 00:27:50;;;;;;;2.95;1.50;;;;;;;7.27;100.00;100574.25;5051219;28;20497;-75
2023/11/16 00:30:18;;;;;;;;;;;;;;;7.40;100.00;100605.44;5054701;28;20091;-74
2023/11/16 00:32:48;;;;;;;5.28;1.55;;;;;;;7.36;100.00;100598.53;5058764;28;19921;-74
2023/11/16 00:35:17;;;;;;;8.82;1.70;;;;;;;7.34;100.00;100602.13;5067818;28;20045;-76
2023/11/16 00:37:45;;;;;;;4.63;1.58;;;;;;;7.39;100.00;100609.00;5051878;28;20128;-75
2023/11/16 00:40:15;;;;;;;6.00;1.50;;;;;;;7.43;100.00;100609.75;5055605;28;20567;-76
2023/11/16 00:42:43;;;;;;;4.13;1.50;;;;;;;7.45;100.00;100602.66;5054343;28;20107;-75
2023/11/16 00:45:16;;;;;;;5.95;1.67;;;;;;;7.35;100.00;100573.13;5054288;28;20048;-74
2023/11/16 00:47:46;;;;;;;5.70;1.50;;;;;;;7.48;100.00;100592.03;5046924;28;20521;-75
2023/11/16 00:50:14;;;;;;;3.03;1.33;;;;;;;7.41;100.00;100579.94;5049805;28;20191;-74
2023/11/16 00:52:47;;;;;;;6.57;1.80;;;;;;;7.36;100.00;100582.75;5050114;28;20050;-74
2023/11/16 00:55:17;;;;;;;5.60;1.52;;;;;;;7.28;100.00;100579.47;5043959;28;20139;-75
2023/11/16 00:57:47;;;;;;;6.07;1.42;;;;;;;7.18;100.00;100561.38;5044580;28;20563;-76
2023/11/16 01:00:19;;;;;;;4.97;1.60;;;;;;;7.25;100.00;100583.94;5050418;28;20067;-75
2023/11/16 01:02:50;;;;;;;5.00;1.63;;;;;;;7.17;100.00;100575.44;5050466;28;20486;-76
2023/11/16 01:05:18;;;;;;;4.43;1.70;;;;;;;7.15;100.00;100582.50;5049092;28;20076;-76
2023/11/16 01:07:47;;;;;;;10.75;1.80;;;;;;;7.13;100.00;100579.94;5067566;28;20498;-76
2023/11/16 01:10:18;;;;;;;8.25;1.65;;;;;;;7.08;100.00;100571.31;5055343;28;20518;-74
2023/11/16 01:12:49;;;;;;;5.53;1.40;;;;;;;7.15;100.00;100583.38;5048934;28;20136;-76
2023/11/16 01:15:20;;;;;;;4.47;1.45;;;;;;;7.14;100.00;100591.31;5040874;28;20057;-75
2023/11/16 01:17:50;;;;;;;3.78;1.30;;;;;;;6.97;100.00;100560.22;5040621;28;20059;-77
2023/11/16 01:20:23;;;;;;;4.78;1.65;;;;;;;7.17;100.00;100576.31;5046481;28;20048;-75
2023/11/16 01:23:11;;;;;;;4.80;1.90;;;;;;;7.20;100.00;100585.88;5037045;28;20045;-77
2023/11/16 01:25:50;;;;;;;5.88;1.75;;;;;;;7.18;100.00;100587.69;5044547;28;20057;-76
2023/11/16 01:28:18;;;;;;;5.57;1.52;;;;;;;7.17;100.00;100594.75;5060252;28;20044;-76
2023/11/16 01:30:48;;;;;;;7.30;1.92;;;;;;;7.14;100.00;100581.66;5041118;28;20469;-75
2023/11/16 01:33:16;;;;;;;;;;;;;;;7.14;100.00;100594.81;5046857;28;20041;-75
2023/11/16 01:35:47;;;;;;;6.60;1.33;;;;;;;7.00;100.00;100581.19;5038062;28;19920;-76
2023/11/16 01:38:15;;;;;;;6.32;2.10;;;;;;;7.01;100.00;100580.28;5044364;28;20138;-76
2023/11/16 01:40:46;;;;;;;4.70;1.65;;;;;;;7.12;100.00;100594.00;5066321;28;20593;-75
2023/11/16 01:43:14;;;;;;;6.80;2.08;;;;;;;7.04;100.00;100569.69;5032400;28;20091;-75
2023/11/16 01:45:43;;;;;;;7.78;2.00;;;;;;;7.13;100.00;100582.56;5049227;28;21393;-74
2023/11/16 01:48:21;;;;;;;7.38;1.85;;;;;;;7.19;100.00;100594.69;5028722;28;20047;-74
2023/11/16 01:50:53;;;;;;;8.48;1.92;;;;;;;7.17;100.00;100594.75;5048196;28;20091;-75
2023/11/16 01:53:22;;;;;;;6.72;1.70;;;;;;;7.11;100.00;100587.00;5052876;28;20535;-75
2023/11/16 01:55:52;;;;;;;6.80;1.52;;;;;;;7.21;100.00;100593.75;5058120;28;20250;-75
2023/11/16 01:58:23;;;;;;;8.13;1.80;;;;;;;7.20;100.00;100599.91;5058511;28;20060;-74
2023/11/16 02:00:51;;;;;;;7.95;1.83;;;;;;;7.19;100.00;100589.44;5050657;28;20045;-75
2023/11/16 02:03:21;;;;;;;4.68;1.65;;;;;;;7.27;100.00;100593.53;5052838;28;20041;-74
2023/11/16 02:05:49;;;;;;;7.23;1.87;;;;;;;7.28;100.00;100592.63;5037073;28;20051;-75
2023/11/16 02:08:20;;;;;;;7.18;1.80;;;;;;;7.36;100.00;100589.78;5038439;28;20487;-75
2023/11/16 02:10:49;;;;;;;5.93;1.60;;;;;;;7.47;100.00;100589.44;5041328;28;20049;-75
2023/11/16 02:13:20;;;;;;;8.10;1.60;;;;;;;7.54;100.00;100594.50;5043236;28;20120;-75
2023/11/16 02:15:49;;;;;;;6.00;1.55;;;;;;;7.48;100.00;100585.91;5042640;28;21097;-75
2023/11/16 02:18:29;;;;;;;5.65;1.63;;;;;;;7.50;100.00;100589.34;5036241;28;20069;-76
2023/11/16 02:20:58;;;;;;;6.25;1.50;;;;;;;7.49;100.00;100587.63;5039455;28;20116;-76
2023/11/16 02:23:29;;;;;;;9.40;2.20;;;;;;;7.46;100.00;100592.97;5055109;28;20037;-75
2023/11/16 02:25:58;;;;;;;;;;;;;;;7.34;100.00;100581.06;5055039;28;20053;-75
2023/11/16 02:28:29;;;;;;;6.35;1.90;;;;;;;7.29;100.00;100573.28;5046215;28;20032;-74
2023/11/16 02:31:00;;;;;;;;;;;;;;;7.26;100.00;100578.66;5045779;28;20053;-74
2023/11/16 02:33:29;;;;;;;7.50;1.77;;;;;;;7.20;100.00;100577.97;5043507;28;19944;-76
2023/11/16 02:36:00;;;;;;;6.22;1.90;;;;;;;7.17;100.00;100580.69;5044206;28;20052;-77
2023/11/16 02:38:31;;;;;;;7.63;2.50;;;;;;;7.08;100.00;100571.31;5024573;28;20041;-75
2023/11/16 02:41:07;;;;;;;10.52;1.85;;;;;;;7.08;100.00;100573.97;5043925;28;20048;-76
2023/11/16 02:43:35;;;;;;;7.75;1.85;;;;;;;7.06;100.00;100575.78;5041693;28;20071;-75
2023/11/16 02:46:04;;;;;;;7.20;1.90;;;;;;;7.03;100.00;100567.97;5027361;28;20566;-75
2023/11/16 02:48:32;;;;;;;6.82;1.92;;;;;;;7.05;100.00;100576.69;5054900;28;20121;-75
2023/11/16 02:51:03;;;;;;;12.05;2.40;;;;;;;7.00;100.00;100563.63;5031335;28;20053;-76
2023/11/16 02:53:34;;;;;;;8.93;2.15;;;;;;;7.08;100.00;100568.69;5046020;28;20033;-76
2023/11/16 02:56:04;;;;;;;8.07;2.20;;;;;;;7.12;100.00;100562.41;5027214;28;20048;-76
2023/11/16 02:58:33;;;;;;;4.85;1.67;;;;;;;7.26;100.00;100581.28;5041550;28;20501;-76
2023/11/16 03:01:03;;;;;;;5.82;1.70;;;;;;;7.39;100.00;100582.66;5044348;28;20103;-76
2023/11/16 03:03:32;;;;;;;11.00;2.42;;;;;;;7.37;100.00;100570.44;5070169;28;20041;-75
2023/11/16 03:06:00;;;;;;;8.35;1.90;;;;;;;7.42;100.00;100575.53;5051405;28;20386;-76
2023/11/16 03:08:29;;;;;;;10.95;1.73;;;;;;;7.36;100.00;100556.41;5029919;28;20055;-75
2023/11/16 03:11:00;;;;;;;7.47;2.08;;;;;;;7.53;100.00;100558.50;5048022;28;20082;-75
2023/11/16 03:13:29;;;;;;;9.05;1.90;;;;;;;7.58;100.00;100555.69;5044691;28;20051;-74
2023/11/16 03:15:58;;;;;;;8.95;2.05;;;;;;;7.53;100.00;100532.16;5042811;28;20049;-74
2023/11/16 03:18:26;;;;;;;7.00;1.80;;;;;;;7.59;100.00;100538.97;5042623;28;20052;-75
2023/11/16 03:20:55;;;;;;;5.75;1.50;;;;;;;7.57;100.00;100552.19;5044405;28;20410;-76
2023/11/16 03:23:25;;;;;;;7.15;1.92;;;;;;;7.52;100.00;100535.69;5042679;28;20505;-75
2023/11/16 03:25:55;;;;;;;10.00;2.13;;;;;;;7.51;100.00;100527.84;5042385;28;20142;-76
2023/11/16 03:28:25;;;;;;;7.25;2.00;;;;;;;7.39;100.00;100511.53;5037145;28;20083;-77
2023/11/16 03:30:53;;;;;;;7.57;1.77;;;;;;;7.47;100.00;100534.97;5038897;28;20048;-75
2023/11/16 03:33:23;;;;;;;7.43;2.00;;;;;;;7.25;100.00;100516.34;5047436;28;20037;-76
2023/11/16 03:35:51;;;;;;;6.10;1.90;;;;;;;7.30;100.00;100535.50;5044905;28;20132;-75
2023/11/16 03:38:20;;;;;;;7.85;2.20;;;;;;;7.26;100.00;100538.28;5052171;28;20122;-75
2023/11/16 03:40:49;;;;;;;7.32;1.92;;;;;;;7.07;100.00;100518.69;5026643;28;20044;-76
2023/11/16 03:43:18;;;;;;;9.35;2.08;;;;;;;7.12;100.00;100541.34;5041394;28;20057;-75
2023/11/16 03:45:47;;;;;;;12.50;1.80;;;;;;;7.16;100.00;100542.09;5056350;28;20045;-75
2023/11/16 03:48:16;;;;;;;9.63;2.40;;;;;;;7.14;100.00;100544.78;5040771;28;20528;-75
2023/11/16 03:50:46;;;;;;;8.55;1.90;;;;;;;6.98;100.00;100518.06;5042970;28;20076;-76
2023/11/16 03:53:15;;;;;;;;;;;;;;;7.10;100.00;100532.63;5045698;28;20057;-75
2023/11/16 03:55:46;;;;;;;10.15;2.13;;;;;;;7.08;100.00;100537.09;5050353;28;19935;-74
2023/11/16 03:58:14;;;;;;;;;;;;;;;7.07;100.00;100540.63;5041976;28;20060;-75
2023/11/16 04:00:42;;;;;;;7.22;2.33;;;;;;;7.01;100.00;100540.81;5050622;28;19993;-74
2023/11/16 04:03:12;;;;;;;7.60;2.45;;;;;;;7.02;100.00;100545.16;5043405;28;20279;-76
2023/11/16 04:05:41;;;;;;;4.77;1.73;;;;;;;6.96;100.00;100530.41;5063473;28;20184;-76
2023/11/16 04:08:10;;;;;;;7.32;1.75;;;;;;;7.00;100.00;100525.91;5039414;28;20485;-76
2023/11/16 04:10:37;;;;;;;6.10;1.80;;;;;;;7.02;100.00;100522.34;5052464;28;20524;-75
2023/11/16 04:13:08;;;;;;;4.65;2.05;;;;;;;6.97;100.00;100518.97;5056909;28;20037;-76
2023/11/16 04:15:36;;;;;;;8.95;2.05;;;;;;;7.01;100.00;100535.53;5059565;28;20029;-75
2023/11/16 04:18:05;;;;;;;9.82;2.20;;;;;;;6.97;100.00;100518.09;5017867;28;20041;-75
2023/11/16 04:20:35;;;;;;;7.30;2.00;;;;;;;7.00;100.00;100516.25;5057102;28;20613;-76
2023/11/16 04:23:03;;;;;;;8.75;1.85;;;;;;;7.00;100.00;100526.78;5052755;28;20095;-75
2023/11/16 04:25:33;;;;;;;7.43;2.00;;;;;;;6.99;100.00;100530.31;5055087;28;20096;-75
2023/11/16 04:28:06;;;;;;;5.55;1.95;;;;;;;7.00;100.00;100526.78;5047597;28;20049;-75
2023/11/16 04:30:34;;;;;;;7.75;1.92;;;;;;;7.00;100.00;100521.50;5054107;28;20061;-75
2023/11/16 04:33:06;;;;;;;8.25;2.58;;;;;;;6.97;100.00;100510.19;5050938;28;20505;-77
2023/11/16 04:35:36;;;;;;;5.82;1.75;;;;;;;7.00;100.00;100521.50;5047611;28;20120;-74
2023/11/16 04:38:04;;;;;;;11.10;2.08;;;;;;;6.99;100.00;100522.41;5025309;28;20056;-74
2023/11/16 04:40:32;;;;;;;5.63;1.92;;;;;;;6.95;100.00;100519.91;5046256;28;20140;-74
2023/11/16 04:43:05;;;;;;;9.48;2.55;;;;;;;6.95;100.00;100519.91;5042485;28;20059;-75
2023/11/16 04:45:34;;;;;;;10.57;2.42;;;;;;;6.87;100.00;100508.78;5038849;28;20052;-74
2023/11/16 04:48:03;;;;;;;9.70;2.70;;;;;;;6.89;100.00;100506.94;5036518;28;20040;-74
2023/11/16 04:50:31;;;;;;;8.75;2.00;;;;;;;6.86;100.00;100499.16;5046479;28;20114;-75
2023/11/16 04:53:01;;;;;;;5.95;2.00;;;;;;;6.80;100.00;100487.03;5027428;28;20055;-76
2023/11/16 04:55:30;;;;;;;7.47;2.05;;;;;;;7.00;100.00;100502.22;5049394;28;20040;-75
2023/11/16 04:58:03;;;;;;;6.80;2.13;;;;;;;7.00;100.00;100486.41;5054319;28;20134;-73
2023/11/16 05:00:31;;;;;;;8.50;2.20;;;;;;;6.97;100.00;100476.84;5048646;28;20397;-75
2023/11/16 05:02:59;;;;;;;8.85;2.42;;;;;;;7.07;100.00;100466.03;5052627;28;20044;-74
2023/11/16 05:05:28;;;;;;;8.43;2.55;;;;;;;7.09;100.00;100461.56;5050006;28;21336;-75
2023/11/16 05:07:56;;;;;;;6.88;2.92;;;;;;;7.20;100.00;100478.78;5044594;28;20193;-74
2023/11/16 05:10:31;;;;;;;4.15;1.80;;;;;;;7.22;100.00;100468.19;5047819;28;20108;-75
2023/11/16 05:13:00;;;;;;;10.10;2.22;;;;;;;7.27;100.00;100472.38;5048593;28;20041;-75
2023/11/16 05:15:33;;;;;;;8.85;2.53;;;;;;;7.26;100.00;100475.91;5052554;28;20128;-75
2023/11/16 05:18:01;;;;;;;8.75;2.58;;;;;;;7.11;100.00;100452.72;5040360;28;20627;-75
2023/11/16 05:20:30;;;;;;;10.90;2.78;;;;;;;7.18;100.00;100470.06;5053100;28;20045;-76
2023/11/16 05:23:00;;;;;;;9.50;2.38;;;;;;;7.10;100.00;100473.81;5047235;28;20072;-77
2023/11/16 05:25:33;;;;;;;10.90;2.78;;;;;;;7.06;100.00;100475.72;5037386;28;20081;-75
2023/11/16 05:28:04;;;;;;;6.93;2.25;;;;;;;7.01;100.00;100469.72;5024567;28;20064;-75
2023/11/16 05:30:33;;;;;;;6.80;2.35;;;;;;;7.07;100.00;100480.06;5046280;28;20068;-76
2023/11/16 05:33:06;;;;;;;7.32;2.63;;;;;;;7.03;100.00;100489.81;5031562;28;20108;-75
2023/11/16 05:35:35;;;;;;;6.97;2.22;;;;;;;6.89;100.00;100468.34;5048793;28;20041;-75
2023/11/16 05:38:04;;;;;;;8.97;2.53;;;;;;;6.98;100.00;100483.84;5037267;28;20056;-75
2023/11/16 05:40:34;;;;;;;8.57;2.53;;;;;;;6.89;100.00;100468.34;5064231;28;20090;-75
2023/11/16 05:43:03;;;;;;;7.40;2.75;;;;;;;6.89;100.00;100481.50;5030396;28;20547;-75
2023/11/16 05:45:31;;;;;;;10.52;2.90;;;;;;;6.75;100.00;100467.03;5043262;28;20048;-75
2023/11/16 05:48:01;;;;;;;9.52;2.50;;;;;;;6.83;100.00;100480.81;5055628;28;20613;-75
2023/11/16 05:50:30;;;;;;;13.40;3.05;;;;;;;6.82;100.00;100479.09;5044537;28;20049;-74
2023/11/16 05:52:59;;;;;;;14.88;3.20;;;;;;;6.74;100.00;100462.69;5043703;28;20180;-75
2023/11/16 05:55:31;;;;;;;11.23;2.47;;;;;;;6.54;100.00;100427.28;5034077;28;20505;-75
2023/11/16 05:58:07;;;;;;;6.32;2.33;;;;;;;6.88;100.00;100479.78;5021882;28;21653;-74
2023/11/16 06:00:36;;;;;;;9.73;3.10;;;;;;;6.73;100.00;100434.63;5033012;28;20428;-76
2023/11/16 06:03:08;;;;;;;9.52;2.58;;;;;;;6.94;100.00;100465.53;5046492;28;20044;-76
2023/11/16 06:05:39;;;;;;;7.57;2.95;;;;;;;6.85;100.00;100455.31;5050310;28;20075;-76
2023/11/16 06:08:08;;;;;;;8.93;2.80;;;;;;;6.92;100.00;100456.84;5026628;28;20053;-75
2023/11/16 06:10:36;;;;;;;8.77;3.38;;;;;;;6.82;100.00;100429.94;5042587;28;20049;-75
2023/11/16 06:13:06;;;;;;;10.25;3.10;;;;;;;6.96;100.00;100450.56;5042657;28;20045;-76
2023/11/16 06:15:35;;;;;;;8.25;2.42;;;;;;;6.91;100.00;100452.50;5046808;28;20505;-76
2023/11/16 06:18:05;;;;;;;12.40;2.63;;;;;;;6.87;100.00;100449.09;5039461;28;20045;-76
2023/11/16 06:20:34;;;;;;;10.30;2.40;;;;;;;6.71;100.00;100442.56;5046131;28;20136;-75
2023/11/16 06:23:06;;;;;;;8.38;2.50;;;;;;;6.68;100.00;100443.53;5045865;28;20139;-76
2023/11/16 06:25:36;;;;;;;7.43;2.72;;;;;;;6.74;100.00;100458.28;5041899;28;20064;-76
2023/11/16 06:28:06;;;;;;;12.35;3.03;;;;;;;6.69;100.00;100447.00;5040447;28;20053;-76
2023/11/16 06:30:38;;;;;;;11.25;2.97;;;;;;;6.73;100.00;100453.06;5042596;28;20060;-76
2023/11/16 06:33:14;;;;;;;9.57;2.80;;;;;;;6.64;100.00;100438.38;5056726;28;20051;-75
2023/11/16 06:35:44;;;;;;;5.20;3.05;;;;;;;6.68;100.00;100445.28;5054536;28;20054;-74
2023/11/16 06:38:16;;;;;;;16.83;5.97;;;;;;;6.69;100.00;100449.66;5048164;28;20115;-76
2023/11/16 06:40:45;;;;;;;15.63;3.53;;;;;;;6.62;100.00;100443.69;5045997;28;20465;-76
2023/11/16 06:43:16;;;;;;;10.10;2.97;;;;;;;6.61;100.00;100444.59;5044966;28;20780;-76
2023/11/16 06:45:48;;;;;;;15.65;3.35;;;;;;;6.62;100.00;100446.31;5033359;28;20076;-76
2023/11/16 06:51:01;;;;;;;8.80;3.13;;;;;;;6.65;100.00;100454.13;5041643;28;20055;-79
2023/11/16 06:53:30;;;;;;;7.73;2.97;;;;;;;6.64;100.00;100444.50;5043252;28;20460;-74
2023/11/16 06:56:00;;;;;;;11.50;3.03;;;;;;;6.73;100.00;100442.53;5031499;28;20577;-76
2023/11/16 06:58:35;;;;;;;13.20;4.20;;;;;;;6.76;100.00;100438.03;5042001;28;20076;-77
2023/11/16 07:01:05;;;;;;;13.70;3.78;;;;;;;6.80;100.00;100441.41;5050021;28;20131;-75
2023/11/16 07:03:33;;;;;;;10.95;3.63;;;;;;;6.80;100.00;100434.38;5054732;28;20133;-75
2023/11/16 07:06:06;;;;;;;12.23;3.50;;;;;;;6.86;100.00;100439.47;5049105;28;20071;-74
2023/11/16 07:08:34;;;;;;;11.00;3.72;;;;;;;6.94;100.00;100436.56;5039205;28;20037;-74
2023/11/16 07:11:05;;;;;;;11.27;3.40;;;;;;;6.98;100.00;100432.94;5049133;28;20524;-75
2023/11/16 07:13:36;;;;;;;12.02;3.78;;;;;;;7.00;100.00;100436.41;5049295;28;20041;-75
2023/11/16 07:16:05;;;;;;;10.80;3.38;;;;;;;7.07;100.00;100429.19;5045798;28;20045;-74
2023/11/16 07:18:34;;;;;;;11.43;3.55;;;;;;;7.06;100.00;100420.41;5035429;28;20144;-74
2023/11/16 07:21:04;;;;;;;12.27;3.58;;;;;;;7.15;100.00;100424.50;5046724;28;20553;-76
2023/11/16 07:23:36;;;;;;;;;;;;;;;7.25;100.00;100428.56;5043704;28;20111;-75
2023/11/16 07:26:08;;;;;;;10.45;3.13;;;;;;;7.28;100.00;100416.16;5048135;28;20586;-75
2023/11/16 07:28:40;;;;;;;8.10;3.30;;;;;;;7.32;100.00;100409.88;5039705;28;20053;-74
2023/11/16 07:31:09;;;;;;;10.52;3.13;;;;;;;7.36;100.00;100387.78;5044003;28;20049;-75
2023/11/16 07:33:39;;;;;;;10.95;3.25;;;;;;;7.43;100.00;100383.16;5044932;28;20049;-75
2023/11/16 07:36:11;;;;;;;10.93;3.25;;;;;;;7.51;100.00;100381.13;5049686;28;20041;-76
2023/11/16 07:38:40;;;;;;;13.57;4.00;;;;;;;7.50;100.00;100358.34;5045143;28;20824;-75
2023/11/16 07:41:08;;;;;;;12.82;3.80;;;;;;;7.68;100.00;100383.19;5047925;28;20033;-75
2023/11/16 07:43:41;;;;;;;7.20;3.38;;;;;;;7.68;100.00;100381.41;5046533;28;20041;-76
2023/11/16 07:46:09;;;;;;;10.88;3.33;;;;;;;7.50;100.00;100345.16;5044821;28;20061;-74
2023/11/16 07:48:40;;;;;;;10.20;3.53;;;;;;;7.67;100.00;100374.41;5041564;28;20144;-76
2023/11/16 07:51:12;;;;;;;9.00;3.17;;;;;;;7.70;100.00;100360.28;5041580;28;20094;-75
2023/11/16 07:53:47;;;;;;;5.93;2.55;;;;;;;7.85;100.00;100367.63;5044042;28;20109;-76
2023/11/16 07:56:17;;;;;;;13.23;3.72;;;;;;;7.86;100.00;100355.31;5039979;28;20306;-76
2023/11/16 07:58:50;;;;;;;10.57;3.15;;;;;;;7.89;100.00;100357.81;5040972;28;20430;-76
2023/11/16 08:01:21;;;;;;;7.35;3.03;;;;;;;7.98;100.00;100366.25;5045154;28;20116;-76
2023/11/16 08:03:55;;;;;;;9.88;3.40;;;;;;;8.03;100.00;100372.22;5053048;28;20049;-75
2023/11/16 08:06:31;;;;;;;8.65;3.10;;;;;;;8.05;100.00;100362.47;5059144;28;20053;-75
2023/11/16 08:08:59;;;;;;;8.50;3.35;;;;;;;8.06;100.00;100361.56;5040124;28;20037;-75
2023/11/16 08:11:30;;;;;;;5.45;2.70;;;;;;;7.94;100.00;100348.81;5062510;28;20412;-76
2023/11/16 08:13:59;;;;;;;10.02;3.97;;;;;;;7.85;100.00;100356.22;5044634;28;20556;-76
2023/11/16 08:16:29;;;;;;;10.73;4.15;;;;;;;7.75;100.00;100356.53;5045379;28;20056;-76
2023/11/16 08:19:01;;;;;;;8.60;4.18;;;;;;;7.69;100.00;100335.69;5040086;28;20049;-76
2023/11/16 08:21:33;;;;;;;8.20;4.25;;;;;;;7.72;100.00;100353.16;5047005;28;20093;-76
2023/11/16 08:24:01;;;;;;;11.25;5.28;;;;;;;7.62;100.00;100343.88;5038725;28;20053;-74
2023/11/16 08:26:31;;;;;;;9.60;5.10;;;;;;;7.68;100.00;100362.97;5044652;28;20409;-75
2023/11/16 08:29:00;;;;;;;11.95;5.82;;;;;;;7.70;100.00;100361.13;5033389;28;20052;-75
2023/11/16 08:31:31;;;;;;;10.77;5.20;;;;;;;7.71;100.00;100330.38;5047098;28;20094;-75
2023/11/16 08:34:01;;;;;;;10.27;5.60;;;;;;;7.88;100.00;100335.84;5048250;28;20045;-75
2023/11/16 08:36:36;;;;;;;12.88;5.40;;;;;;;8.01;100.00;100337.16;5044377;28;20444;-75
2023/11/16 08:39:07;;;;;;;;;;;;;;;8.05;100.00;100341.38;5046481;28;20074;-74
2023/11/16 08:41:35;;;;;;;10.15;5.55;;;;;;;8.03;100.00;100340.56;5060571;28;20378;-75
2023/11/16 08:44:09;;;;;;;11.07;5.43;;;;;;;7.95;100.00;100339.16;5055862;28;20037;-75
2023/11/16 08:46:41;;;;;;;12.43;5.88;;;;;;;7.97;100.00;100322.34;5044628;28;20041;-74
2023/11/16 08:49:10;;;;;;;11.77;5.07;;;;;;;8.01;100.00;100323.97;5042516;28;21205;-76
2023/11/16 08:51:39;;;;;;;12.77;5.75;;;;;;;8.02;100.00;100324.81;5048018;28;20084;-75
2023/11/16 08:54:08;;;;;;;12.57;6.00;;;;;;;7.94;100.00;100304.00;5028082;28;20144;-75
2023/11/16 08:56:37;;;;;;;9.48;5.18;;;;;;;7.95;100.00;100297.81;5047815;28;20124;-76
2023/11/16 08:59:12;;;;;;;11.60;5.25;;;;;;;8.18;100.00;100304.00;5042490;28;20059;-77
2023/11/16 09:01:43;;;;;;;13.10;4.95;;;;;;;8.26;100.00;100292.22;5026601;28;20069;-76
2023/11/16 09:04:13;;;;;;;15.23;4.77;;;;;;;8.46;100.00;100306.44;5047763;28;20488;-75
2023/11/16 09:06:44;;;;;;;10.23;5.13;;;;;;;8.41;100.00;100293.44;5049649;28;20545;-75
2023/11/16 09:11:54;;;;;;;11.38;4.25;;;;;;;8.47;100.00;100287.91;5050676;28;20049;-75
2023/11/16 09:14:28;;;;;;;10.07;5.03;;;;;;;8.35;100.00;100247.03;5069946;28;20051;-75
2023/11/16 09:17:02;;;;;;;12.45;4.15;;;;;;;8.70;100.00;100287.84;5034983;28;20943;-76
2023/11/16 09:19:40;;;;;;;10.02;4.60;;;;;;;8.66;100.00;100280.94;5041907;28;20081;-76
2023/11/16 09:22:09;;;;;;;10.75;4.50;;;;;;;8.61;100.00;100277.66;5032585;28;20048;-77
2023/11/16 09:24:39;;;;;;;14.25;5.10;;;;;;;8.63;100.00;100281.09;5048305;28;20048;-77
2023/11/16 09:27:17;;;;;;;8.35;3.97;;;;;;;8.59;100.00;100278.63;5046139;28;20061;-77
2023/11/16 09:29:51;;;;;;;12.85;4.30;;;;;;;8.44;100.00;100253.72;5042399;28;20044;-76
2023/11/16 09:32:21;;;;;;;11.68;4.38;;;;;;;8.51;100.00;100260.47;5047028;28;20523;-75
2023/11/16 09:34:49;;;;;;;15.07;4.10;;;;;;;8.58;100.00;100269.88;5048260;28;20298;-76
2023/11/16 09:37:22;;;;;;;10.77;4.35;;;;;;;8.64;100.00;100281.97;5046498;28;20045;-75
2023/11/16 09:39:50;;;;;;;11.63;4.13;;;;;;;8.69;100.00;100279.97;5043622;28;20072;-76
2023/11/16 09:42:27;;;;;;;10.25;4.35;;;;;;;8.79;100.00;100279.56;5054257;28;20057;-77
2023/11/16 09:45:07;;;;;;;14.85;5.72;;;;;;;9.08;100.00;100261.63;5051324;28;20674;-76
2023/11/16 09:47:42;;;;;;;12.48;6.28;;;;;;;9.31;100.00;100265.88;5055118;28;20041;-76
2023/11/16 09:50:10;;;;;;;13.57;6.30;;;;;;;9.46;100.00;100259.91;5036597;28;20059;-75
2023/11/16 09:52:39;;;;;;;11.35;5.50;;;;;;;9.53;100.00;100248.16;5049982;28;20052;-76
2023/11/16 09:55:09;;;;;;;19.35;6.63;;;;;;;9.55;100.00;100234.88;5048328;28;20444;-75
2023/11/16 09:57:41;;;;;;;13.07;6.05;;;;;;;9.54;100.00;100227.88;5043023;28;20128;-76
2023/11/16 10:00:18;;;;;;;13.13;6.18;;;;;;;9.48;100.00;100206.06;5046974;28;20087;-76
2023/11/16 10:02:53;;;;;;;15.38;7.13;;;;;;;9.67;100.00;100221.09;5054674;28;20068;-75
2023/11/16 10:05:24;;;;;;;10.02;5.40;;;;;;;9.73;100.00;100207.59;5072227;28;20049;-76
2023/11/16 10:07:53;;;;;;;11.13;4.70;;;;;;;9.86;100.00;100203.44;5052714;28;20464;-75
2023/11/16 10:10:25;;;;;;;10.27;4.15;;;;;;;9.93;100.00;100188.13;5047670;28;20394;-76
2023/11/16 10:12:57;;;;;;;13.43;4.55;;;;;;;9.98;100.00;100188.78;5051609;28;20797;-77
2023/11/16 10:15:27;;;;;;;10.85;4.15;;;;;;;10.08;100.00;100188.25;5041877;28;20053;-76
2023/11/16 10:17:57;;;;;;;13.95;5.20;;;;;;;10.03;100.00;100174.41;5052002;28;20076;-76
2023/11/16 10:20:25;;;;;;;7.80;4.37;;;;;;;10.01;100.00;100176.28;5040260;28;20100;-76
2023/11/16 10:22:54;;;;;;;13.57;4.43;;;;;;;10.02;100.00;100178.00;5044130;28;20049;-74
2023/11/16 10:25:23;;;;;;;10.80;3.72;;;;;;;9.90;100.00;100152.13;5047639;28;20049;-75
2023/11/16 10:27:52;;;;;;;11.45;4.47;;;;;;;10.09;100.00;100158.22;5050255;28;20037;-76
2023/11/16 10:30:23;;;;;;;8.90;4.25;;;;;;;10.21;100.00;100151.53;5026976;28;20120;-75
2023/11/16 10:32:54;;;;;;;9.82;4.18;;;;;;;10.24;100.00;100132.81;5048576;28;20063;-76
2023/11/16 10:35:25;;;;;;;10.85;4.75;;;;;;;10.14;100.00;100105.09;5049713;28;20084;-76
2023/11/16 10:37:54;;;;;;;9.77;4.07;;;;;;;10.31;100.00;100112.22;5043833;28;20033;-76
2023/11/16 10:40:23;;;;;;;8.90;4.43;;;;;;;10.28;100.00;100085.91;5038760;28;20052;-76
2023/11/16 10:42:52;;;;;;;9.13;4.32;;;;;;;10.42;100.00;100094.84;5048736;28;20045;-76
2023/11/16 10:45:22;;;;;;;13.27;4.38;;;;;;;10.51;100.00;100085.59;5047176;28;20048;-76
2023/11/16 10:47:50;;;;;;;12.93;4.85;;;;;;;10.53;100.00;100087.25;5046646;28;20052;-75
2023/11/16 10:50:22;;;;;;;8.15;3.72;;;;;;;10.53;100.00;100075.78;5042002;28;20049;-78
2023/11/16 10:52:52;;;;;;;9.52;4.15;;;;;;;10.38;100.00;100069.50;5044640;28;20053;-76
2023/11/16 10:55:24;;;;;;;11.45;4.80;;;;;;;10.26;100.00;100051.56;5043576;28;20089;-75
2023/11/16 10:58:04;;;;;;;10.15;4.20;;;;;;;10.25;100.00;100057.81;5045765;28;20052;-76
2023/11/16 11:00:36;;;;;;;9.68;4.82;;;;;;;10.19;100.00;100052.84;5055955;28;20108;-77
2023/11/16 11:03:07;;;;;;;12.02;5.25;;;;;;;10.12;100.00;100044.31;5015100;28;20676;-76
2023/11/16 11:05:41;;;;;;;12.80;5.80;;;;;;;10.03;100.00;100028.06;5046679;28;20096;-76
2023/11/16 11:08:11;;;;;;;12.90;5.50;;;;;;;10.04;100.00;100020.03;5048726;28;20056;-76
2023/11/16 11:10:41;;;;;;;14.68;4.90;;;;;;;10.18;100.00;100029.94;5040412;28;20049;-75
2023/11/16 11:13:11;;;;;;;;;;;;;;;10.17;100.00;100029.06;5044558;28;20806;-76
2023/11/16 11:15:40;;;;;;;18.15;6.00;;;;;;;10.14;100.00;100021.28;5048524;28;20290;-76
2023/11/16 11:18:12;;;;;;;14.45;5.28;;;;;;;10.10;100.00;100026.78;5044345;28;20122;-77
2023/11/16 11:20:43;;;;;;;11.57;5.88;;;;;;;9.96;100.00;100027.50;5037981;28;20137;-76
2023/11/16 11:23:15;;;;;;;12.48;6.50;;;;;;;9.89;100.00;100017.31;5035279;28;20057;-76
2023/11/16 11:25:46;;;;;;;12.90;6.55;;;;;;;9.88;100.00;100028.81;5043001;28;20049;-76
2023/11/16 11:28:17;;;;;;;16.88;6.63;;;;;;;9.85;100.00;100028.03;5045012;28;20037;-77
2023/11/16 11:30:54;;;;;;;14.30;4.85;;;;;;;9.83;100.00;100019.31;5036581;28;20225;-77
2023/11/16 11:33:33;;;;;;;7.28;4.18;;;;;;;9.79;100.00;100011.63;5040224;28;20050;-76
2023/11/16 11:36:10;;;;;;;12.00;5.57;;;;;;;9.71;100.00;100011.16;5057769;28;20040;-76
2023/11/16 11:38:38;;;;;;;11.25;5.38;;;;;;;9.70;100.00;100014.72;5029869;28;20188;-77
2023/11/16 11:41:09;;;;;;;12.10;5.05;;;;;;;9.74;100.00;100018.94;5041901;28;20049;-76
2023/11/16 11:43:38;;;;;;;13.00;5.60;;;;;;;9.63;100.00;100002.72;5046014;28;20033;-77